createdAt,value
2022-12-15T00:12:16.597Z,99675.06
2022-12-15T00:33:05.845Z,99704.13
2022-12-15T01:10:56.726Z,99718.66
2022-12-15T01:47:34.622Z,99707.59
2022-12-15T01:58:53.820Z,99720.41
2022-12-15T02:15:21.045Z,99707.59
2022-12-15T02:18:35.488Z,99705.91
2022-12-15T02:30:15.363Z,99730.69
2022-12-15T02:33:03.155Z,99738.41
2022-12-15T02:35:59.003Z,99738.44
2022-12-15T03:08:59.366Z,99794.78
2022-12-15T03:11:26.598Z,99795.63
2022-12-15T03:13:54.172Z,99789.66
2022-12-15T03:16:22.046Z,99797.34
2022-12-15T03:18:49.459Z,99803.28
2022-12-15T03:21:16.704Z,99799.00
2022-12-15T03:23:43.891Z,99804.94
2022-12-15T03:26:11.914Z,99802.31
2022-12-15T03:28:39.152Z,99798.06
2022-12-15T03:31:06.286Z,99804.03
2022-12-15T03:33:34.777Z,99800.59
2022-12-15T03:36:02.345Z,99793.72
2022-12-15T03:38:29.563Z,99783.47
2022-12-15T03:40:56.686Z,99781.72
2022-12-15T03:43:23.856Z,99787.72
2022-12-15T03:45:51.066Z,99780.84
2022-12-15T03:48:18.343Z,99792.81
2022-12-15T03:50:45.579Z,99789.47
2022-12-15T03:53:12.896Z,99792.88
2022-12-15T03:55:40.386Z,99789.44
2022-12-15T03:58:07.655Z,99795.41
2022-12-15T04:05:55.909Z,99815.94
2022-12-15T04:22:06.294Z,99819.41
2022-12-15T04:42:40.536Z,99852.78
2022-12-15T04:45:27.276Z,99857.88
2022-12-15T04:48:16.309Z,99856.16
2022-12-15T04:51:02.609Z,99862.16
2022-12-15T04:53:48.306Z,99868.09
2022-12-15T04:56:37.839Z,99869.00
2022-12-15T04:59:23.625Z,99866.47
2022-12-15T05:34:01.085Z,99908.31
2022-12-15T06:56:00.641Z,99982.25
2022-12-15T06:58:28.158Z,99991.63
2022-12-15T07:00:56.119Z,99995.88
2022-12-15T07:03:23.719Z,100013.72
2022-12-15T07:06:04.869Z,100015.31
2022-12-15T07:08:39.533Z,100017.88
2022-12-15T07:11:11.837Z,100026.44
2022-12-15T07:13:43.200Z,100023.06
2022-12-15T07:16:11.700Z,100036.69
2022-12-15T07:18:40.588Z,100029.91
2022-12-15T07:21:09.563Z,100038.44
2022-12-15T07:23:53.983Z,100043.50
2022-12-15T07:26:22.890Z,100048.63
2022-12-15T07:28:50.278Z,100053.72
2022-12-15T07:31:18.206Z,100063.09
2022-12-15T07:33:45.738Z,100063.13
2022-12-15T07:36:13.172Z,100073.31
2022-12-15T07:38:42.561Z,100071.53
2022-12-15T07:41:10.252Z,100070.66
2022-12-15T07:43:38.448Z,100075.81
2022-12-15T07:46:06.164Z,100073.25
2022-12-15T07:48:36.148Z,100077.50
2022-12-15T07:51:15.264Z,100079.19
2022-12-15T07:53:47.837Z,100074.09
2022-12-15T07:56:15.479Z,100088.63
2022-12-15T07:58:43.081Z,100081.81
2022-12-15T08:01:12.641Z,100084.38
2022-12-15T08:03:40.978Z,100092.06
2022-12-15T08:06:13.145Z,100085.22
2022-12-15T08:08:40.770Z,100093.75
2022-12-15T08:11:13.671Z,100106.47
2022-12-15T08:16:30.249Z,100111.63
2022-12-15T08:18:57.548Z,100113.44
2022-12-15T08:21:24.915Z,100102.38
2022-12-15T08:23:52.672Z,100109.22
2022-12-15T08:26:23.781Z,100108.38
2022-12-15T08:28:55.438Z,100116.13
2022-12-15T08:31:24.358Z,100121.22
2022-12-15T08:33:51.628Z,100133.16
2022-12-15T08:36:20.432Z,100136.53
2022-12-15T08:38:47.765Z,100128.84
2022-12-15T08:41:23.355Z,100126.31
2022-12-15T08:43:51.181Z,100136.53
2022-12-15T08:46:21.657Z,100132.25
2022-12-15T08:48:49.460Z,100127.16
2022-12-15T08:51:17.382Z,100145.09
2022-12-15T08:53:45.555Z,100142.59
2022-12-15T08:56:18.232Z,100136.66
2022-12-15T08:58:48.094Z,100139.25
2022-12-15T09:01:23.290Z,100145.22
2022-12-15T09:03:53.841Z,100140.97
2022-12-15T09:06:32.324Z,100142.75
2022-12-15T09:09:02.144Z,100144.50
2022-12-15T09:11:30.436Z,100145.38
2022-12-15T09:13:58.180Z,100152.22
2022-12-15T09:16:25.473Z,100150.56
2022-12-15T09:18:54.885Z,100148.88
2022-12-15T09:21:26.663Z,100153.16
2022-12-15T09:23:56.072Z,100152.34
2022-12-15T09:26:24.024Z,100150.63
2022-12-15T09:28:52.070Z,100157.47
2022-12-15T09:31:23.716Z,100165.16
2022-12-15T09:33:52.746Z,100162.63
2022-12-15T09:36:20.911Z,100159.19
2022-12-15T09:38:55.171Z,100166.88
2022-12-15T09:41:30.721Z,100163.53
2022-12-15T09:44:07.641Z,100153.31
2022-12-15T09:46:50.597Z,100151.59
2022-12-15T09:49:30.229Z,100159.28
2022-12-15T09:52:11.050Z,100157.59
2022-12-15T09:54:41.901Z,100153.31
2022-12-15T09:57:52.143Z,100161.84
2022-12-15T10:00:21.853Z,100161.84
2022-12-15T10:03:04.589Z,100172.09
2022-12-15T10:08:35.823Z,100158.41
2022-12-15T10:11:32.145Z,100163.53
2022-12-15T10:14:30.567Z,100160.13
2022-12-15T10:17:19.384Z,100154.97
2022-12-15T10:20:06.607Z,100166.06
2022-12-15T10:22:38.166Z,100174.63
2022-12-15T10:25:14.733Z,100179.75
2022-12-15T10:27:57.189Z,100172.88
2022-12-15T10:30:24.906Z,100166.03
2022-12-15T10:33:19.209Z,100178.00
2022-12-15T10:35:46.732Z,100183.13
2022-12-15T10:38:54.071Z,100170.28
2022-12-15T10:41:24.322Z,100169.41
2022-12-15T10:43:53.927Z,100172.81
2022-12-15T10:46:34.275Z,100165.94
2022-12-15T10:49:11.388Z,100166.81
2022-12-15T10:51:50.052Z,100171.97
2022-12-15T10:54:19.489Z,100173.63
2022-12-15T10:56:52.489Z,100179.56
2022-12-15T10:59:31.529Z,100182.03
2022-12-15T11:02:37.264Z,100181.00
2022-12-15T11:05:06.312Z,100177.44
2022-12-15T11:07:43.695Z,100192.75
2022-12-15T11:10:14.059Z,100186.56
2022-12-15T11:12:58.246Z,100180.50
2022-12-15T11:16:11.685Z,100186.66
2022-12-15T11:18:48.969Z,100197.69
2022-12-15T11:21:35.641Z,100202.78
2022-12-15T11:24:09.383Z,100205.97
2022-12-15T11:26:49.264Z,100206.84
2022-12-15T11:29:25.819Z,100207.63
2022-12-15T11:31:54.668Z,100203.31
2022-12-15T11:34:31.698Z,100199.03
2022-12-15T11:36:59.254Z,100199.09
2022-12-15T11:39:49.407Z,100202.50
2022-12-15T11:42:17.714Z,100200.69
2022-12-15T11:44:55.260Z,100198.06
2022-12-15T11:47:48.175Z,100203.22
2022-12-15T11:50:37.337Z,100211.75
2022-12-15T11:53:15.958Z,100200.56
2022-12-15T11:56:03.978Z,100201.31
2022-12-15T11:58:34.735Z,100193.53
2022-12-15T12:01:21.112Z,100196.13
2022-12-15T12:04:03.329Z,100187.44
2022-12-15T12:06:41.348Z,100183.13
2022-12-15T12:09:18.602Z,100187.47
2022-12-15T12:11:48.869Z,100188.28
2022-12-15T12:14:56.671Z,100189.94
2022-12-15T12:17:34.154Z,100185.63
2022-12-15T12:23:02.283Z,100186.94
2022-12-15T12:25:31.240Z,100178.13
2022-12-15T12:28:07.414Z,100173.84
2022-12-15T12:30:46.081Z,100176.16
2022-12-15T12:33:45.793Z,100179.47
2022-12-15T12:36:20.549Z,100176.47
2022-12-15T12:38:56.157Z,100179.56
2022-12-15T12:41:35.679Z,100185.97
2022-12-15T12:44:09.919Z,100188.22
2022-12-15T12:46:46.495Z,100187.78
2022-12-15T12:49:39.341Z,100189.56
2022-12-15T12:52:23.487Z,100197.28
2022-12-15T12:54:58.800Z,100201.56
2022-12-15T12:57:30.974Z,100201.72
2022-12-15T13:00:06.308Z,100207.19
2022-12-15T13:02:38.129Z,100204.75
2022-12-15T13:05:25.934Z,100215.28
2022-12-15T13:08:13.617Z,100215.53
2022-12-15T13:10:50.954Z,100210.75
2022-12-15T13:13:33.884Z,100208.94
2022-12-15T13:16:30.745Z,100202.22
2022-12-15T13:19:06.808Z,100206.75
2022-12-15T13:21:48.513Z,100193.06
2022-12-15T13:24:19.635Z,100193.16
2022-12-15T13:26:48.692Z,100194.63
2022-12-15T13:29:21.082Z,100194.56
2022-12-15T13:31:49.752Z,100199.19
2022-12-15T13:34:23.087Z,100201.78
2022-12-15T13:36:56.232Z,100192.94
2022-12-15T13:39:30.459Z,100187.03
2022-12-15T13:44:55.294Z,100192.31
2022-12-15T13:47:25.471Z,100207.16
2022-12-15T13:50:02.393Z,100213.75
2022-12-15T13:55:38.411Z,100206.94
2022-12-15T13:58:19.069Z,100209.84
2022-12-15T14:00:55.238Z,100204.75
2022-12-15T14:03:26.457Z,100209.94
2022-12-15T14:05:56.490Z,100208.22
2022-12-15T14:08:28.941Z,100204.00
2022-12-15T14:10:58.883Z,100204.97
2022-12-15T14:13:31.755Z,100205.00
2022-12-15T14:16:05.300Z,100205.88
2022-12-15T14:18:37.690Z,100209.38
2022-12-15T14:21:20.372Z,100202.75
2022-12-15T14:26:35.981Z,100217.16
2022-12-15T14:29:06.616Z,100213.81
2022-12-15T14:31:41.857Z,100212.28
2022-12-15T14:34:24.089Z,100207.13
2022-12-15T14:36:56.848Z,100210.59
2022-12-15T14:39:40.827Z,100210.63
2022-12-15T15:03:04.871Z,100189.78
